sensor_id;sensor_type;location;lat;lon;timestamp;temperature;humidity
22108;DHT22;11220;48.812;9.128;2023-02-24T00:01:32;17.90;75.60
22108;DHT22;11220;48.812;9.128;2023-02-24T00:04:03;17.90;75.60
22108;DHT22;11220;48.812;9.128;2023-02-24T00:06:33;17.90;75.60
22108;DHT22;11220;48.812;9.128;2023-02-24T00:09:02;17.90;75.60
22108;DHT22;11220;48.812;9.128;2023-02-24T00:11:30;17.90;75.60
22108;DHT22;11220;48.812;9.128;2023-02-24T00:13:56;17.90;75.60
22108;DHT22;11220;48.812;9.128;2023-02-24T00:16:21;17.90;75.60
22108;DHT22;11220;48.812;9.128;2023-02-24T00:18:50;18.00;75.60
22108;DHT22;11220;48.812;9.128;2023-02-24T00:21:16;18.00;75.60
22108;DHT22;11220;48.812;9.128;2023-02-24T00:23:44;17.90;75.60
22108;DHT22;11220;48.812;9.128;2023-02-24T00:26:12;17.90;75.60
22108;DHT22;11220;48.812;9.128;2023-02-24T00:28:39;17.90;75.60
22108;DHT22;11220;48.812;9.128;2023-02-24T00:31:07;17.90;75.60
22108;DHT22;11220;48.812;9.128;2023-02-24T00:33:34;17.90;75.60
22108;DHT22;11220;48.812;9.128;2023-02-24T00:36:05;17.80;75.50
22108;DHT22;11220;48.812;9.128;2023-02-24T00:38:30;17.90;75.60
22108;DHT22;11220;48.812;9.128;2023-02-24T00:41:13;17.90;75.60
22108;DHT22;11220;48.812;9.128;2023-02-24T00:43:41;17.80;75.50
22108;DHT22;11220;48.812;9.128;2023-02-24T00:46:14;17.90;75.60
22108;DHT22;11220;48.812;9.128;2023-02-24T00:48:51;17.80;75.50
22108;DHT22;11220;48.812;9.128;2023-02-24T00:51:23;17.80;75.50
22108;DHT22;11220;48.812;9.128;2023-02-24T00:53:51;17.80;75.50
22108;DHT22;11220;48.812;9.128;2023-02-24T00:56:21;17.80;75.50
22108;DHT22;11220;48.812;9.128;2023-02-24T00:58:46;17.80;75.50
22108;DHT22;11220;48.812;9.128;2023-02-24T01:01:16;17.80;75.50
22108;DHT22;11220;48.812;9.128;2023-02-24T01:03:42;17.80;75.50
22108;DHT22;11220;48.812;9.128;2023-02-24T01:06:10;17.80;75.50
22108;DHT22;11220;48.812;9.128;2023-02-24T01:08:37;17.80;75.50
22108;DHT22;11220;48.812;9.128;2023-02-24T01:11:05;17.80;75.50
22108;DHT22;11220;48.812;9.128;2023-02-24T01:13:49;18.10;75.80
22108;DHT22;11220;48.812;9.128;2023-02-24T01:16:15;17.80;75.50
22108;DHT22;11220;48.812;9.128;2023-02-24T01:18:44;17.80;75.50
22108;DHT22;11220;48.812;9.128;2023-02-24T01:21:12;17.80;75.50
22108;DHT22;11220;48.812;9.128;2023-02-24T01:23:39;17.80;75.50
22108;DHT22;11220;48.812;9.128;2023-02-24T01:26:04;17.80;75.50
22108;DHT22;11220;48.812;9.128;2023-02-24T01:28:30;17.80;75.60
22108;DHT22;11220;48.812;9.128;2023-02-24T01:31:00;17.80;75.50
22108;DHT22;11220;48.812;9.128;2023-02-24T01:33:27;17.80;75.50
22108;DHT22;11220;48.812;9.128;2023-02-24T01:35:54;17.80;75.50
22108;DHT22;11220;48.812;9.128;2023-02-24T01:38:20;17.80;75.50
22108;DHT22;11220;48.812;9.128;2023-02-24T01:40:59;17.80;75.60
22108;DHT22;11220;48.812;9.128;2023-02-24T01:43:25;17.70;75.50
22108;DHT22;11220;48.812;9.128;2023-02-24T01:45:53;17.70;75.40
22108;DHT22;11220;48.812;9.128;2023-02-24T01:48:18;17.80;75.50
22108;DHT22;11220;48.812;9.128;2023-02-24T01:50:44;17.80;75.50
22108;DHT22;11220;48.812;9.128;2023-02-24T01:53:10;17.70;75.40
22108;DHT22;11220;48.812;9.128;2023-02-24T01:55:46;17.80;75.50
22108;DHT22;11220;48.812;9.128;2023-02-24T01:58:21;17.70;75.40
22108;DHT22;11220;48.812;9.128;2023-02-24T02:00:48;17.70;75.40
22108;DHT22;11220;48.812;9.128;2023-02-24T02:03:18;17.70;75.40
22108;DHT22;11220;48.812;9.128;2023-02-24T02:05:45;17.80;75.50
22108;DHT22;11220;48.812;9.128;2023-02-24T02:08:16;17.70;75.40
22108;DHT22;11220;48.812;9.128;2023-02-24T02:10:42;17.80;75.50
22108;DHT22;11220;48.812;9.128;2023-02-24T02:13:13;17.70;75.40
22108;DHT22;11220;48.812;9.128;2023-02-24T02:23:56;17.70;75.40
22108;DHT22;11220;48.812;9.128;2023-02-24T02:32:24;18.50;75.90
22108;DHT22;11220;48.812;9.128;2023-02-24T02:35:18;17.70;75.50
22108;DHT22;11220;48.812;9.128;2023-02-24T02:46:04;17.70;75.50
22108;DHT22;11220;48.812;9.128;2023-02-24T02:48:50;17.70;75.50
22108;DHT22;11220;48.812;9.128;2023-02-24T02:51:23;17.70;75.50
22108;DHT22;11220;48.812;9.128;2023-02-24T02:56:28;17.70;75.50
22108;DHT22;11220;48.812;9.128;2023-02-24T02:58:58;17.70;75.50
22108;DHT22;11220;48.812;9.128;2023-02-24T03:04:12;17.70;75.50
22108;DHT22;11220;48.812;9.128;2023-02-24T03:06:42;17.60;75.40
22108;DHT22;11220;48.812;9.128;2023-02-24T03:09:14;17.70;75.50
22108;DHT22;11220;48.812;9.128;2023-02-24T03:11:41;17.70;75.50
22108;DHT22;11220;48.812;9.128;2023-02-24T03:14:10;18.20;75.80
22108;DHT22;11220;48.812;9.128;2023-02-24T03:16:39;17.60;75.40
22108;DHT22;11220;48.812;9.128;2023-02-24T03:19:07;17.60;75.40
22108;DHT22;11220;48.812;9.128;2023-02-24T03:21:37;17.60;75.50
22108;DHT22;11220;48.812;9.128;2023-02-24T03:24:03;17.60;75.50
22108;DHT22;11220;48.812;9.128;2023-02-24T03:26:39;17.60;75.50
22108;DHT22;11220;48.812;9.128;2023-02-24T03:29:14;17.60;75.50
22108;DHT22;11220;48.812;9.128;2023-02-24T03:32:12;17.60;75.50
22108;DHT22;11220;48.812;9.128;2023-02-24T03:34:55;17.60;75.40
22108;DHT22;11220;48.812;9.128;2023-02-24T03:37:23;17.60;75.40
22108;DHT22;11220;48.812;9.128;2023-02-24T03:39:56;17.70;75.50
22108;DHT22;11220;48.812;9.128;2023-02-24T03:42:22;17.60;75.50
22108;DHT22;11220;48.812;9.128;2023-02-24T03:44:49;17.60;75.50
22108;DHT22;11220;48.812;9.128;2023-02-24T03:47:18;17.60;75.50
22108;DHT22;11220;48.812;9.128;2023-02-24T03:49:45;17.70;75.50
22108;DHT22;11220;48.812;9.128;2023-02-24T03:55:42;17.60;75.50
22108;DHT22;11220;48.812;9.128;2023-02-24T03:58:21;17.60;75.50
22108;DHT22;11220;48.812;9.128;2023-02-24T04:00:55;17.60;75.50
22108;DHT22;11220;48.812;9.128;2023-02-24T04:08:53;17.60;75.50
22108;DHT22;11220;48.812;9.128;2023-02-24T04:11:28;19.00;76.40
22108;DHT22;11220;48.812;9.128;2023-02-24T04:14:02;17.60;75.50
22108;DHT22;11220;48.812;9.128;2023-02-24T04:16:49;17.60;75.50
22108;DHT22;11220;48.812;9.128;2023-02-24T04:19:20;17.60;75.50
22108;DHT22;11220;48.812;9.128;2023-02-24T04:21:48;17.60;75.50
22108;DHT22;11220;48.812;9.128;2023-02-24T04:24:17;17.60;75.60
22108;DHT22;11220;48.812;9.128;2023-02-24T04:26:44;17.60;75.50
22108;DHT22;11220;48.812;9.128;2023-02-24T04:29:12;17.60;75.50
22108;DHT22;11220;48.812;9.128;2023-02-24T04:31:45;17.60;75.50
22108;DHT22;11220;48.812;9.128;2023-02-24T04:34:12;17.60;75.50
22108;DHT22;11220;48.812;9.128;2023-02-24T04:36:47;17.60;75.50
22108;DHT22;11220;48.812;9.128;2023-02-24T04:39:16;17.60;75.50
22108;DHT22;11220;48.812;9.128;2023-02-24T04:41:45;17.60;75.50
22108;DHT22;11220;48.812;9.128;2023-02-24T04:44:17;17.60;75.50
22108;DHT22;11220;48.812;9.128;2023-02-24T04:46:44;17.60;75.60
22108;DHT22;11220;48.812;9.128;2023-02-24T04:49:10;17.50;75.50
22108;DHT22;11220;48.812;9.128;2023-02-24T04:51:36;17.50;75.50
22108;DHT22;11220;48.812;9.128;2023-02-24T04:54:10;17.50;75.50
22108;DHT22;11220;48.812;9.128;2023-02-24T04:56:38;17.60;75.60
22108;DHT22;11220;48.812;9.128;2023-02-24T04:59:05;17.60;75.50
22108;DHT22;11220;48.812;9.128;2023-02-24T05:01:31;17.70;75.60
22108;DHT22;11220;48.812;9.128;2023-02-24T05:03:56;17.50;75.50
22108;DHT22;11220;48.812;9.128;2023-02-24T05:06:22;17.50;75.50
22108;DHT22;11220;48.812;9.128;2023-02-24T05:08:48;17.50;75.50
22108;DHT22;11220;48.812;9.128;2023-02-24T05:11:17;17.50;75.50
22108;DHT22;11220;48.812;9.128;2023-02-24T05:13:43;17.50;75.50
22108;DHT22;11220;48.812;9.128;2023-02-24T05:16:14;17.50;75.50
22108;DHT22;11220;48.812;9.128;2023-02-24T05:18:40;17.50;75.50
22108;DHT22;11220;48.812;9.128;2023-02-24T05:21:09;17.50;75.50
22108;DHT22;11220;48.812;9.128;2023-02-24T05:23:54;17.50;75.50
22108;DHT22;11220;48.812;9.128;2023-02-24T05:26:21;17.50;75.50
22108;DHT22;11220;48.812;9.128;2023-02-24T05:28:50;17.50;75.50
22108;DHT22;11220;48.812;9.128;2023-02-24T05:31:22;17.50;75.50
22108;DHT22;11220;48.812;9.128;2023-02-24T05:33:52;17.50;75.50
22108;DHT22;11220;48.812;9.128;2023-02-24T05:36:27;17.50;75.50
22108;DHT22;11220;48.812;9.128;2023-02-24T05:38:55;17.50;75.50
22108;DHT22;11220;48.812;9.128;2023-02-24T05:41:26;17.50;75.50
22108;DHT22;11220;48.812;9.128;2023-02-24T05:44:02;17.50;75.50
22108;DHT22;11220;48.812;9.128;2023-02-24T05:46:30;17.50;75.50
22108;DHT22;11220;48.812;9.128;2023-02-24T05:49:03;17.50;76.50
22108;DHT22;11220;48.812;9.128;2023-02-24T05:51:34;17.50;75.50
22108;DHT22;11220;48.812;9.128;2023-02-24T05:54:01;17.50;75.50
22108;DHT22;11220;48.812;9.128;2023-02-24T05:56:30;17.50;75.50
22108;DHT22;11220;48.812;9.128;2023-02-24T05:58:58;17.50;75.60
22108;DHT22;11220;48.812;9.128;2023-02-24T06:01:28;17.50;75.60
22108;DHT22;11220;48.812;9.128;2023-02-24T06:03:55;17.50;75.70
22108;DHT22;11220;48.812;9.128;2023-02-24T06:06:21;17.50;75.60
22108;DHT22;11220;48.812;9.128;2023-02-24T06:08:48;17.50;75.60
22108;DHT22;11220;48.812;9.128;2023-02-24T06:11:16;17.60;75.70
22108;DHT22;11220;48.812;9.128;2023-02-24T06:13:46;17.60;75.70
22108;DHT22;11220;48.812;9.128;2023-02-24T06:16:14;17.60;76.60
22108;DHT22;11220;48.812;9.128;2023-02-24T06:18:40;17.60;75.70
22108;DHT22;11220;48.812;9.128;2023-02-24T06:21:06;17.60;75.70
22108;DHT22;11220;48.812;9.128;2023-02-24T06:23:32;17.60;75.70
22108;DHT22;11220;48.812;9.128;2023-02-24T06:26:05;17.70;75.80
22108;DHT22;11220;48.812;9.128;2023-02-24T06:28:35;17.70;75.80
22108;DHT22;11220;48.812;9.128;2023-02-24T06:31:04;17.70;75.80
22108;DHT22;11220;48.812;9.128;2023-02-24T06:33:33;17.70;75.80
22108;DHT22;11220;48.812;9.128;2023-02-24T06:36:00;17.70;75.80
22108;DHT22;11220;48.812;9.128;2023-02-24T06:38:28;17.70;75.80
22108;DHT22;11220;48.812;9.128;2023-02-24T06:40:57;17.80;75.70
22108;DHT22;11220;48.812;9.128;2023-02-24T06:43:22;17.80;75.70
22108;DHT22;11220;48.812;9.128;2023-02-24T06:45:48;17.80;75.60
22108;DHT22;11220;48.812;9.128;2023-02-24T06:48:14;17.90;75.70
22108;DHT22;11220;48.812;9.128;2023-02-24T06:50:40;17.90;75.60
22108;DHT22;11220;48.812;9.128;2023-02-24T06:53:05;17.90;75.50
22108;DHT22;11220;48.812;9.128;2023-02-24T06:55:42;17.90;75.40
22108;DHT22;11220;48.812;9.128;2023-02-24T06:58:17;17.90;75.40
22108;DHT22;11220;48.812;9.128;2023-02-24T07:00:44;17.90;75.30
22108;DHT22;11220;48.812;9.128;2023-02-24T07:03:22;18.00;75.30
22108;DHT22;11220;48.812;9.128;2023-02-24T07:05:53;18.00;75.20
22108;DHT22;11220;48.812;9.128;2023-02-24T07:08:25;18.00;75.20
22108;DHT22;11220;48.812;9.128;2023-02-24T07:10:55;18.00;75.20
22108;DHT22;11220;48.812;9.128;2023-02-24T07:13:23;18.00;75.10
22108;DHT22;11220;48.812;9.128;2023-02-24T07:15:49;18.00;76.00
22108;DHT22;11220;48.812;9.128;2023-02-24T07:18:16;18.00;75.10
22108;DHT22;11220;48.812;9.128;2023-02-24T07:20:42;18.00;75.00
22108;DHT22;11220;48.812;9.128;2023-02-24T07:23:13;18.10;75.10
22108;DHT22;11220;48.812;9.128;2023-02-24T07:25:40;18.10;75.10
22108;DHT22;11220;48.812;9.128;2023-02-24T07:28:16;18.10;75.00
22108;DHT22;11220;48.812;9.128;2023-02-24T07:30:43;18.10;75.00
22108;DHT22;11220;48.812;9.128;2023-02-24T07:33:08;18.10;75.00
22108;DHT22;11220;48.812;9.128;2023-02-24T07:35:34;18.10;75.00
22108;DHT22;11220;48.812;9.128;2023-02-24T07:38:01;18.10;75.00
22108;DHT22;11220;48.812;9.128;2023-02-24T07:40:31;18.10;76.00
22108;DHT22;11220;48.812;9.128;2023-02-24T07:43:01;18.10;75.00
22108;DHT22;11220;48.812;9.128;2023-02-24T07:45:27;18.10;75.00
22108;DHT22;11220;48.812;9.128;2023-02-24T07:47:54;18.10;75.10
22108;DHT22;11220;48.812;9.128;2023-02-24T07:50:19;18.10;75.10
22108;DHT22;11220;48.812;9.128;2023-02-24T07:52:46;18.10;75.10
22108;DHT22;11220;48.812;9.128;2023-02-24T07:55:14;18.10;75.10
22108;DHT22;11220;48.812;9.128;2023-02-24T07:57:41;18.10;75.10
22108;DHT22;11220;48.812;9.128;2023-02-24T08:00:12;18.10;75.00
22108;DHT22;11220;48.812;9.128;2023-02-24T08:02:46;18.20;75.10
22108;DHT22;11220;48.812;9.128;2023-02-24T08:05:13;18.20;75.10
22108;DHT22;11220;48.812;9.128;2023-02-24T08:07:39;18.20;75.10
22108;DHT22;11220;48.812;9.128;2023-02-24T08:10:06;18.20;75.10
22108;DHT22;11220;48.812;9.128;2023-02-24T08:12:39;18.20;75.10
22108;DHT22;11220;48.812;9.128;2023-02-24T08:15:07;18.20;75.10
22108;DHT22;11220;48.812;9.128;2023-02-24T08:17:41;18.20;75.00
22108;DHT22;11220;48.812;9.128;2023-02-24T08:20:07;18.20;75.00
22108;DHT22;11220;48.812;9.128;2023-02-24T08:22:40;18.20;75.00
22108;DHT22;11220;48.812;9.128;2023-02-24T08:25:09;18.20;75.10
22108;DHT22;11220;48.812;9.128;2023-02-24T08:27:36;18.30;75.10
22108;DHT22;11220;48.812;9.128;2023-02-24T08:30:04;18.20;75.00
22108;DHT22;11220;48.812;9.128;2023-02-24T08:32:41;18.30;75.10
22108;DHT22;11220;48.812;9.128;2023-02-24T08:35:18;18.20;75.00
22108;DHT22;11220;48.812;9.128;2023-02-24T08:37:47;18.30;75.10
22108;DHT22;11220;48.812;9.128;2023-02-24T08:40:16;18.20;74.90
22108;DHT22;11220;48.812;9.128;2023-02-24T08:43:43;18.30;75.10
22108;DHT22;11220;48.812;9.128;2023-02-24T08:45:47;18.30;75.10
22108;DHT22;11220;48.812;9.128;2023-02-24T08:48:19;18.30;75.10
22108;DHT22;11220;48.812;9.128;2023-02-24T08:51:03;18.30;75.20
22108;DHT22;11220;48.812;9.128;2023-02-24T08:53:30;18.30;75.50
22108;DHT22;11220;48.812;9.128;2023-02-24T08:56:00;18.30;75.50
22108;DHT22;11220;48.812;9.128;2023-02-24T08:58:34;18.30;75.70
22108;DHT22;11220;48.812;9.128;2023-02-24T09:01:00;18.30;75.80
22108;DHT22;11220;48.812;9.128;2023-02-24T09:03:29;18.30;76.00
22108;DHT22;11220;48.812;9.128;2023-02-24T09:05:58;18.40;76.00
22108;DHT22;11220;48.812;9.128;2023-02-24T09:08:25;18.40;76.20
22108;DHT22;11220;48.812;9.128;2023-02-24T09:11:04;18.40;76.20
22108;DHT22;11220;48.812;9.128;2023-02-24T09:13:33;18.40;76.20
22108;DHT22;11220;48.812;9.128;2023-02-24T09:16:03;18.40;76.20
22108;DHT22;11220;48.812;9.128;2023-02-24T09:18:29;18.40;76.20
22108;DHT22;11220;48.812;9.128;2023-02-24T09:20:56;18.40;76.30
22108;DHT22;11220;48.812;9.128;2023-02-24T09:23:40;18.40;76.40
22108;DHT22;11220;48.812;9.128;2023-02-24T09:26:12;18.40;76.40
22108;DHT22;11220;48.812;9.128;2023-02-24T09:28:39;18.40;76.50
22108;DHT22;11220;48.812;9.128;2023-02-24T09:31:19;18.40;76.50
22108;DHT22;11220;48.812;9.128;2023-02-24T09:33:49;18.40;76.50
22108;DHT22;11220;48.812;9.128;2023-02-24T09:36:18;18.50;76.60
22108;DHT22;11220;48.812;9.128;2023-02-24T09:38:57;18.50;76.60
22108;DHT22;11220;48.812;9.128;2023-02-24T09:41:47;18.40;76.60
22108;DHT22;11220;48.812;9.128;2023-02-24T09:44:47;18.50;76.70
22108;DHT22;11220;48.812;9.128;2023-02-24T09:47:36;18.50;76.60
22108;DHT22;11220;48.812;9.128;2023-02-24T09:50:27;18.50;76.70
22108;DHT22;11220;48.812;9.128;2023-02-24T09:53:04;18.50;76.60
22108;DHT22;11220;48.812;9.128;2023-02-24T09:55:52;18.50;76.60
22108;DHT22;11220;48.812;9.128;2023-02-24T10:01:36;18.50;76.60
22108;DHT22;11220;48.812;9.128;2023-02-24T10:04:41;18.50;76.70
22108;DHT22;11220;48.812;9.128;2023-02-24T10:07:35;18.50;76.70
22108;DHT22;11220;48.812;9.128;2023-02-24T10:10:17;18.50;76.70
22108;DHT22;11220;48.812;9.128;2023-02-24T10:13:00;18.50;76.70
22108;DHT22;11220;48.812;9.128;2023-02-24T10:15:31;18.60;76.70
22108;DHT22;11220;48.812;9.128;2023-02-24T10:18:26;18.60;76.70
22108;DHT22;11220;48.812;9.128;2023-02-24T10:20:59;18.50;76.60
22108;DHT22;11220;48.812;9.128;2023-02-24T10:23:37;18.50;76.60
22108;DHT22;11220;48.812;9.128;2023-02-24T10:32:02;18.60;76.60
22108;DHT22;11220;48.812;9.128;2023-02-24T10:34:32;18.60;76.50
22108;DHT22;11220;48.812;9.128;2023-02-24T10:37:00;18.60;77.50
22108;DHT22;11220;48.812;9.128;2023-02-24T10:39:31;18.60;76.50
22108;DHT22;11220;48.812;9.128;2023-02-24T10:42:03;18.60;76.50
22108;DHT22;11220;48.812;9.128;2023-02-24T10:44:47;18.60;76.50
22108;DHT22;11220;48.812;9.128;2023-02-24T10:47:28;18.60;76.40
22108;DHT22;11220;48.812;9.128;2023-02-24T10:50:02;18.60;76.40
22108;DHT22;11220;48.812;9.128;2023-02-24T10:52:43;18.50;76.20
22108;DHT22;11220;48.812;9.128;2023-02-24T10:55:25;18.50;76.20
22108;DHT22;11220;48.812;9.128;2023-02-24T10:58:21;18.50;76.20
22108;DHT22;11220;48.812;9.128;2023-02-24T11:01:22;18.60;76.30
22108;DHT22;11220;48.812;9.128;2023-02-24T11:04:11;18.50;76.30
22108;DHT22;11220;48.812;9.128;2023-02-24T11:06:47;18.50;76.20
22108;DHT22;11220;48.812;9.128;2023-02-24T11:09:24;18.50;76.20
22108;DHT22;11220;48.812;9.128;2023-02-24T11:11:55;18.60;76.20
22108;DHT22;11220;48.812;9.128;2023-02-24T11:14:54;18.50;76.00
22108;DHT22;11220;48.812;9.128;2023-02-24T11:17:56;18.50;75.90
22108;DHT22;11220;48.812;9.128;2023-02-24T11:20:42;18.60;75.90
22108;DHT22;11220;48.812;9.128;2023-02-24T11:23:14;18.50;75.70
22108;DHT22;11220;48.812;9.128;2023-02-24T11:25:57;18.50;75.70
22108;DHT22;11220;48.812;9.128;2023-02-24T11:28:56;18.50;75.60
22108;DHT22;11220;48.812;9.128;2023-02-24T11:31:58;18.50;75.60
22108;DHT22;11220;48.812;9.128;2023-02-24T11:34:34;18.50;75.50
22108;DHT22;11220;48.812;9.128;2023-02-24T11:40:03;18.50;75.40
22108;DHT22;11220;48.812;9.128;2023-02-24T11:42:43;18.50;75.40
22108;DHT22;11220;48.812;9.128;2023-02-24T11:47:42;18.50;75.40
22108;DHT22;11220;48.812;9.128;2023-02-24T11:52:44;18.50;75.30
22108;DHT22;11220;48.812;9.128;2023-02-24T11:55:28;18.50;75.30
22108;DHT22;11220;48.812;9.128;2023-02-24T11:58:02;18.50;75.30
22108;DHT22;11220;48.812;9.128;2023-02-24T12:00:31;18.50;75.30
22108;DHT22;11220;48.812;9.128;2023-02-24T12:03:21;18.50;75.30
22108;DHT22;11220;48.812;9.128;2023-02-24T12:05:53;18.50;75.30
22108;DHT22;11220;48.812;9.128;2023-02-24T12:08:32;18.50;75.30
22108;DHT22;11220;48.812;9.128;2023-02-24T12:11:19;18.60;75.40
22108;DHT22;11220;48.812;9.128;2023-02-24T12:16:29;18.50;75.30
22108;DHT22;11220;48.812;9.128;2023-02-24T12:19:03;18.60;75.40
22108;DHT22;11220;48.812;9.128;2023-02-24T12:24:04;18.60;75.40
22108;DHT22;11220;48.812;9.128;2023-02-24T12:26:56;18.60;75.30
22108;DHT22;11220;48.812;9.128;2023-02-24T12:29:49;18.60;75.30
22108;DHT22;11220;48.812;9.128;2023-02-24T12:43:45;18.60;73.60
22108;DHT22;11220;48.812;9.128;2023-02-24T12:46:34;18.50;73.30
22108;DHT22;11220;48.812;9.128;2023-02-24T12:49:39;18.50;73.90
22108;DHT22;11220;48.812;9.128;2023-02-24T12:54:54;18.20;71.30
22108;DHT22;11220;48.812;9.128;2023-02-24T12:57:31;18.10;72.10
22108;DHT22;11220;48.812;9.128;2023-02-24T13:00:05;18.10;73.10
22108;DHT22;11220;48.812;9.128;2023-02-24T13:02:50;18.20;73.70
22108;DHT22;11220;48.812;9.128;2023-02-24T13:05:22;18.20;74.10
22108;DHT22;11220;48.812;9.128;2023-02-24T13:08:18;18.30;74.20
22108;DHT22;11220;48.812;9.128;2023-02-24T13:10:50;18.30;74.30
22108;DHT22;11220;48.812;9.128;2023-02-24T13:13:39;18.40;74.30
22108;DHT22;11220;48.812;9.128;2023-02-24T13:16:10;18.50;74.40
22108;DHT22;11220;48.812;9.128;2023-02-24T13:18:36;18.50;74.40
22108;DHT22;11220;48.812;9.128;2023-02-24T13:21:18;19.30;74.90
22108;DHT22;11220;48.812;9.128;2023-02-24T13:23:55;18.50;74.40
22108;DHT22;11220;48.812;9.128;2023-02-24T13:26:26;18.50;74.40
22108;DHT22;11220;48.812;9.128;2023-02-24T13:29:08;18.50;74.40
22108;DHT22;11220;48.812;9.128;2023-02-24T13:31:49;18.50;74.40
22108;DHT22;11220;48.812;9.128;2023-02-24T13:36:55;18.50;74.40
22108;DHT22;11220;48.812;9.128;2023-02-24T13:39:34;18.50;74.40
22108;DHT22;11220;48.812;9.128;2023-02-24T13:42:15;18.50;74.40
22108;DHT22;11220;48.812;9.128;2023-02-24T13:50:40;18.50;74.70
22108;DHT22;11220;48.812;9.128;2023-02-24T13:53:35;18.50;74.50
22108;DHT22;11220;48.812;9.128;2023-02-24T14:04:35;18.50;74.60
22108;DHT22;11220;48.812;9.128;2023-02-24T14:07:04;18.60;74.60
22108;DHT22;11220;48.812;9.128;2023-02-24T14:09:37;18.60;74.60
22108;DHT22;11220;48.812;9.128;2023-02-24T14:12:20;18.60;74.70
22108;DHT22;11220;48.812;9.128;2023-02-24T14:14:48;18.60;74.70
22108;DHT22;11220;48.812;9.128;2023-02-24T14:17:29;18.50;74.70
22108;DHT22;11220;48.812;9.128;2023-02-24T14:20:18;18.50;74.60
22108;DHT22;11220;48.812;9.128;2023-02-24T14:22:49;18.50;74.60
22108;DHT22;11220;48.812;9.128;2023-02-24T14:25:15;18.50;74.70
22108;DHT22;11220;48.812;9.128;2023-02-24T14:27:43;18.50;74.70
22108;DHT22;11220;48.812;9.128;2023-02-24T14:32:50;18.50;74.80
22108;DHT22;11220;48.812;9.128;2023-02-24T14:35:22;18.50;74.70
22108;DHT22;11220;48.812;9.128;2023-02-24T14:37:50;18.50;74.70
22108;DHT22;11220;48.812;9.128;2023-02-24T14:40:15;18.50;74.80
22108;DHT22;11220;48.812;9.128;2023-02-24T14:42:48;18.50;74.90
22108;DHT22;11220;48.812;9.128;2023-02-24T14:45:23;18.50;74.90
22108;DHT22;11220;48.812;9.128;2023-02-24T14:47:53;18.50;75.10
22108;DHT22;11220;48.812;9.128;2023-02-24T14:50:29;18.50;75.20
22108;DHT22;11220;48.812;9.128;2023-02-24T14:53:02;18.50;75.30
22108;DHT22;11220;48.812;9.128;2023-02-24T14:55:33;18.50;75.40
22108;DHT22;11220;48.812;9.128;2023-02-24T14:58:26;18.50;75.50
22108;DHT22;11220;48.812;9.128;2023-02-24T15:01:04;18.50;75.60
22108;DHT22;11220;48.812;9.128;2023-02-24T15:03:42;18.50;75.60
22108;DHT22;11220;48.812;9.128;2023-02-24T15:06:14;18.50;75.60
22108;DHT22;11220;48.812;9.128;2023-02-24T15:08:44;18.50;75.80
22108;DHT22;11220;48.812;9.128;2023-02-24T15:11:20;18.50;75.80
22108;DHT22;11220;48.812;9.128;2023-02-24T15:14:02;18.50;75.80
22108;DHT22;11220;48.812;9.128;2023-02-24T15:16:39;18.50;75.80
22108;DHT22;11220;48.812;9.128;2023-02-24T15:19:30;18.50;75.90
22108;DHT22;11220;48.812;9.128;2023-02-24T15:21:56;18.50;75.90
22108;DHT22;11220;48.812;9.128;2023-02-24T15:24:33;18.50;76.00
22108;DHT22;11220;48.812;9.128;2023-02-24T15:29:41;18.40;75.90
22108;DHT22;11220;48.812;9.128;2023-02-24T15:32:16;18.50;76.00
22108;DHT22;11220;48.812;9.128;2023-02-24T15:34:44;18.50;76.00
22108;DHT22;11220;48.812;9.128;2023-02-24T15:37:23;18.50;76.00
22108;DHT22;11220;48.812;9.128;2023-02-24T15:39:51;18.50;76.00
22108;DHT22;11220;48.812;9.128;2023-02-24T15:42:31;18.50;76.10
22108;DHT22;11220;48.812;9.128;2023-02-24T15:45:00;18.50;76.10
22108;DHT22;11220;48.812;9.128;2023-02-24T15:47:43;18.50;76.10
22108;DHT22;11220;48.812;9.128;2023-02-24T15:50:10;18.50;76.20
22108;DHT22;11220;48.812;9.128;2023-02-24T15:52:37;18.50;76.20
22108;DHT22;11220;48.812;9.128;2023-02-24T15:55:04;18.50;76.20
22108;DHT22;11220;48.812;9.128;2023-02-24T15:57:30;18.50;76.20
22108;DHT22;11220;48.812;9.128;2023-02-24T15:59:56;18.50;76.20
22108;DHT22;11220;48.812;9.128;2023-02-24T16:02:23;18.40;76.20
22108;DHT22;11220;48.812;9.128;2023-02-24T16:04:49;18.50;76.20
22108;DHT22;11220;48.812;9.128;2023-02-24T16:07:19;18.40;76.20
22108;DHT22;11220;48.812;9.128;2023-02-24T16:09:45;18.40;76.20
22108;DHT22;11220;48.812;9.128;2023-02-24T16:12:16;18.40;76.20
22108;DHT22;11220;48.812;9.128;2023-02-24T16:14:42;18.40;76.20
22108;DHT22;11220;48.812;9.128;2023-02-24T16:17:27;18.40;76.20
22108;DHT22;11220;48.812;9.128;2023-02-24T16:19:54;18.40;76.20
22108;DHT22;11220;48.812;9.128;2023-02-24T16:22:21;18.40;76.20
22108;DHT22;11220;48.812;9.128;2023-02-24T16:24:47;18.40;76.20
22108;DHT22;11220;48.812;9.128;2023-02-24T16:27:15;18.40;76.20
22108;DHT22;11220;48.812;9.128;2023-02-24T16:29:41;18.40;76.20
22108;DHT22;11220;48.812;9.128;2023-02-24T16:32:12;18.00;76.00
22108;DHT22;11220;48.812;9.128;2023-02-24T16:34:38;18.40;76.30
22108;DHT22;11220;48.812;9.128;2023-02-24T16:37:14;18.40;76.30
22108;DHT22;11220;48.812;9.128;2023-02-24T16:39:40;18.30;76.30
22108;DHT22;11220;48.812;9.128;2023-02-24T16:42:06;18.40;76.30
22108;DHT22;11220;48.812;9.128;2023-02-24T16:44:32;18.40;76.40
22108;DHT22;11220;48.812;9.128;2023-02-24T16:46:58;18.30;76.40
22108;DHT22;11220;48.812;9.128;2023-02-24T16:49:24;18.40;76.40
22108;DHT22;11220;48.812;9.128;2023-02-24T16:51:50;18.70;76.60
22108;DHT22;11220;48.812;9.128;2023-02-24T16:54:15;18.30;76.40
22108;DHT22;11220;48.812;9.128;2023-02-24T16:56:41;18.40;76.40
22108;DHT22;11220;48.812;9.128;2023-02-24T16:59:06;18.40;76.40
22108;DHT22;11220;48.812;9.128;2023-02-24T17:01:32;18.30;76.40
22108;DHT22;11220;48.812;9.128;2023-02-24T17:03:58;18.30;76.40
22108;DHT22;11220;48.812;9.128;2023-02-24T17:06:24;18.30;76.40
22108;DHT22;11220;48.812;9.128;2023-02-24T17:08:50;18.30;76.40
22108;DHT22;11220;48.812;9.128;2023-02-24T17:11:18;18.30;76.40
22108;DHT22;11220;48.812;9.128;2023-02-24T17:13:43;18.30;76.40
22108;DHT22;11220;48.812;9.128;2023-02-24T17:16:09;18.40;76.50
22108;DHT22;11220;48.812;9.128;2023-02-24T17:18:35;18.30;76.40
22108;DHT22;11220;48.812;9.128;2023-02-24T17:21:01;18.30;76.40
22108;DHT22;11220;48.812;9.128;2023-02-24T17:23:27;18.30;76.40
22108;DHT22;11220;48.812;9.128;2023-02-24T17:25:55;18.30;76.40
22108;DHT22;11220;48.812;9.128;2023-02-24T17:28:23;18.30;76.30
22108;DHT22;11220;48.812;9.128;2023-02-24T17:30:49;18.30;76.40
22108;DHT22;11220;48.812;9.128;2023-02-24T17:33:15;18.30;76.40
22108;DHT22;11220;48.812;9.128;2023-02-24T17:35:41;18.30;76.40
22108;DHT22;11220;48.812;9.128;2023-02-24T17:38:11;18.30;76.30